ADDS METAR Data INFO
IDs: Format: Raw Decoded Include TAF

Data at: 1749 UTC 21 Oct 2017

KEZF 211735Z AUTO 07003KT 10SM CLR 24/08 A3032 RMK AO2 T02420080
KEZF 211715Z AUTO 00000KT 10SM CLR 24/09 A3032 RMK AO2 T02360086
KEZF 211655Z AUTO 13003KT 10SM CLR 24/09 A3033 RMK AO2 T02360088
KEZF 211635Z AUTO 12004KT 10SM CLR 24/09 A3034 RMK AO2 T02350091
KEZF 211615Z AUTO 09004KT 10SM CLR 23/10 A3035 RMK AO2 T02320098
KEZF 211555Z AUTO 10004KT 10SM CLR 23/10 A3035 RMK AO2 T02280098
KEZF 211535Z AUTO 08003KT 10SM CLR 22/12 A3035 RMK AO2 T02160115
KEZF 211515Z AUTO 00000KT 10SM CLR 20/12 A3035 RMK AO2 T02010115
KEZF 211455Z AUTO 00000KT 10SM CLR 19/11 A3036 RMK AO2 T01900109
KEZF 211435Z AUTO 00000KT 10SM CLR 18/11 A3036 RMK AO2 T01750113
KEZF 211415Z AUTO 00000KT 10SM CLR 16/11 A3036 RMK AO2 T01630111
KEZF 211355Z AUTO 00000KT 10SM CLR 15/11 A3035 RMK AO2 T01470110
KEZF 211335Z AUTO 00000KT 10SM CLR 14/11 A3035 RMK AO2 T01350109
KEZF 211315Z AUTO 00000KT 10SM CLR 12/11 A3035 RMK AO2 T01210109
KEZF 211255Z AUTO 00000KT 10SM CLR 11/10 A3035 RMK AO2 T01050103
KEZF 211235Z AUTO 00000KT 10SM CLR 09/09 A3034 RMK AO2 T00940094
KEZF 211215Z AUTO 00000KT 10SM CLR 08/08 A3033 RMK AO2 T00820082
KEZF 211155Z AUTO 00000KT 10SM CLR 08/08 A3032 RMK AO2 T00760076 10095 20071
KEZF 211135Z AUTO 00000KT 10SM CLR 07/07 A3031 RMK AO2 T00720072
KEZF 211115Z AUTO 00000KT 10SM CLR 07/07 A3031 RMK AO2 T00710071
KEZF 211055Z AUTO 00000KT 10SM CLR 08/08 A3031 RMK AO2 T00780078
KEZF 211035Z AUTO 00000KT 10SM CLR 08/08 A3030 RMK AO2 T00780078
KEZF 211015Z AUTO 00000KT 10SM CLR 08/08 A3030 RMK AO2 T00770077
KEZF 210955Z AUTO 00000KT 10SM CLR 08/08 A3029 RMK AO2 T00780078
KEZF 210935Z AUTO 00000KT 10SM CLR 08/08 A3028 RMK AO2 T00810081
KEZF 210915Z AUTO 00000KT 10SM CLR 08/08 A3028 RMK AO2 T00810081
KEZF 210855Z AUTO 00000KT 10SM CLR 08/08 A3027 RMK AO2 T00750075
KEZF 210835Z AUTO 00000KT 10SM CLR 08/08 A3027 RMK AO2 T00790079
KEZF 210815Z AUTO 00000KT 10SM CLR 09/09 A3027 RMK AO2 T00850085
KEZF 210755Z AUTO 00000KT 10SM CLR 09/09 A3027 RMK AO2 T00870087
KEZF 210735Z AUTO 00000KT 10SM CLR 09/09 A3027 RMK AO2 T00870087
KEZF 210715Z AUTO 00000KT 10SM CLR 09/09 A3027 RMK AO2 T00890089
KEZF 210655Z AUTO 00000KT 10SM CLR 09/09 A3027 RMK AO2 T00890089
KEZF 210635Z AUTO 00000KT 10SM CLR 09/09 A3027 RMK AO2 T00880088
KEZF 210615Z AUTO 00000KT 10SM CLR 09/09 A3027 RMK AO2 T00940094
KEZF 210555Z AUTO 00000KT 10SM CLR 10/10 A3027 RMK AO2 T00960096 10150 20095 402540075
KEZF 210535Z AUTO 00000KT 10SM CLR 10/10 A3027 RMK AO2 T00970097
KEZF 210515Z AUTO 00000KT 10SM CLR 10/10 A3027 RMK AO2 T00970097
KEZF 210455Z AUTO 00000KT 10SM CLR 10/10 A3027 RMK AO2 T00990099
KEZF 210435Z AUTO 00000KT 10SM CLR 10/09 A3027 RMK AO2 T00970094
KEZF 210415Z AUTO 00000KT 10SM CLR 10/09 A3026 RMK AO2 T00970085
KEZF 210355Z AUTO 00000KT 10SM CLR 11/10 A3026 RMK AO2 T01070097
KEZF 210335Z AUTO 00000KT 10SM CLR 11/10 A3025 RMK AO2 T01070096
KEZF 210315Z AUTO 00000KT 10SM CLR 11/09 A3025 RMK AO2 T01060093
KEZF 210255Z AUTO 00000KT 10SM CLR 11/10 A3024 RMK AO2 T01140095
KEZF 210235Z AUTO 00000KT 10SM CLR 12/10 A3024 RMK AO2 T01150096
KEZF 210215Z AUTO 00000KT 10SM CLR 12/10 A3023 RMK AO2 T01190100
KEZF 210155Z AUTO 00000KT 10SM CLR 12/10 A3023 RMK AO2 T01200095
KEZF 210135Z AUTO 00000KT 10SM CLR 13/10 A3023 RMK AO2 T01250097
KEZF 210115Z AUTO 00000KT 10SM CLR 13/10 A3023 RMK AO2 T01320104
KEZF 210055Z AUTO 00000KT 10SM CLR 13/10 A3022 RMK AO2 T01320104
KEZF 210035Z AUTO 00000KT 10SM CLR 14/11 A3021 RMK AO2 T01370105
KEZF 210015Z AUTO 00000KT 10SM CLR 14/11 A3021 RMK AO2 T01440109
KEZF 202355Z AUTO 00000KT 10SM CLR 15/12 A3021 RMK AO2 T01500115 10254 20150
KEZF 202335Z AUTO 00000KT 10SM CLR 16/11 A3021 RMK AO2 T01600114
KEZF 202315Z AUTO 00000KT 10SM CLR 16/12 A3020 RMK AO2 T01610115
KEZF 202255Z AUTO 00000KT 10SM CLR 18/12 A3019 RMK AO2 T01760118
KEZF 202235Z AUTO 00000KT 10SM CLR 18/12 A3019 RMK AO2 T01810122
KEZF 202215Z AUTO 01003KT 10SM CLR 22/09 A3019 RMK AO2 T02230086
KEZF 202155Z AUTO 35005KT 10SM CLR 23/08 A3018 RMK AO2 T02320083
KEZF 202135Z AUTO 34003KT 10SM CLR 24/09 A3018 RMK AO2 T02370089
KEZF 202115Z AUTO 35003KT 10SM CLR 24/09 A3018 RMK AO2 T02420086
KEZF 202055Z AUTO 33004KT 10SM CLR 25/09 A3018 RMK AO2 T02450087
KEZF 202035Z AUTO 34006KT 10SM CLR 25/09 A3018 RMK AO2 T02470087
KEZF 202015Z AUTO 01005KT 10SM CLR 25/09 A3018 RMK AO2 T02480086
KEZF 201955Z AUTO 02005KT 10SM CLR 25/09 A3018 RMK AO2 T02490091
KEZF 201935Z AUTO 33005KT 10SM CLR 25/10 A3018 RMK AO2 T02510098
KEZF 201915Z AUTO 03006KT 10SM CLR 25/10 A3018 RMK AO2 T02500097
KEZF 201855Z AUTO 03004KT 10SM CLR 25/10 A3019 RMK AO2 T02510102
KEZF 201835Z AUTO 32005KT 10SM CLR 25/11 A3019 RMK AO2 T02530107
KEZF 201815Z AUTO 30006KT 10SM CLR 25/11 A3019 RMK AO2 T02490111
KEZF 201755Z AUTO 33008KT 10SM CLR 25/11 A3020 RMK AO2 T02480107 10250 20083
KEZF 201735Z AUTO 35008G14KT 320V020 10SM CLR 25/11 A3021 RMK AO2 T02480114
KEZF 201715Z AUTO 34011KT 10SM CLR 24/12 A3022 RMK AO2 T02410116
KEZF 201655Z AUTO 34009G14KT 10SM CLR 24/12 A3023 RMK AO2 T02380115
KEZF 201635Z AUTO 32008KT 10SM CLR 24/12 A3024 RMK AO2 T02370116
KEZF 201615Z AUTO 34006KT 10SM CLR 24/11 A3025 RMK AO2 T02350112
KEZF 201555Z AUTO 35007KT 10SM CLR 23/12 A3025 RMK AO2 T02330119
KEZF 201535Z AUTO 00000KT 10SM CLR 22/12 A3025 RMK AO2 T02210121
KEZF 201515Z AUTO 00000KT 10SM CLR 21/12 A3025 RMK AO2 T02110123
KEZF 201455Z AUTO 00000KT 10SM CLR 20/12 A3025 RMK AO2 T02020122
KEZF 201435Z AUTO 00000KT 10SM CLR 19/12 A3025 RMK AO2 T01900118
KEZF 201415Z AUTO 00000KT 10SM CLR 18/12 A3026 RMK AO2 T01780115
KEZF 201355Z AUTO 00000KT 10SM CLR 16/11 A3026 RMK AO2 T01640113
KEZF 201335Z AUTO 00000KT 10SM CLR 15/11 A3026 RMK AO2 T01470111
KEZF 201315Z AUTO 00000KT 10SM CLR 14/11 A3025 RMK AO2 T01390107
KEZF 201255Z AUTO 00000KT 10SM CLR 12/11 A3024 RMK AO2 T01190113
KEZF 201235Z AUTO 00000KT 10SM CLR 10/10 A3024 RMK AO2 T01040104
KEZF 201215Z AUTO 00000KT 10SM CLR 09/09 A3023 RMK AO2 T00880088
KEZF 201155Z AUTO 00000KT 10SM CLR 08/08 A3022 RMK AO2 T00820082 10087 20075
KEZF 201135Z AUTO 00000KT 10SM CLR 08/08 A3022 RMK AO2 T00790079
KEZF 201115Z AUTO 00000KT 10SM CLR 08/08 A3021 RMK AO2 T00750075
KEZF 201055Z AUTO 00000KT 10SM CLR 08/08 A3021 RMK AO2 T00790079
KEZF 201035Z AUTO 00000KT 10SM CLR 08/08 A3020 RMK AO2 T00790079
KEZF 201015Z AUTO 00000KT 10SM CLR 08/08 A3020 RMK AO2 T00780078
KEZF 200955Z AUTO 00000KT 10SM CLR 08/08 A3019 RMK AO2 T00800080
KEZF 200935Z AUTO 00000KT 10SM CLR 08/08 A3019 RMK AO2 T00820082
KEZF 200915Z AUTO 00000KT 10SM CLR 08/08 A3018 RMK AO2 T00820082
KEZF 200855Z AUTO 00000KT 10SM CLR 08/08 A3018 RMK AO2 T00820082
KEZF 200835Z AUTO 00000KT 10SM CLR 08/08 A3017 RMK AO2 T00810081
KEZF 200815Z AUTO 00000KT 10SM CLR 08/08 A3017 RMK AO2 T00820082
KEZF 200755Z AUTO 00000KT 10SM CLR 08/08 A3017 RMK AO2 T00820082
KEZF 200735Z AUTO 00000KT 10SM CLR 08/08 A3017 RMK AO2 T00790079
KEZF 200715Z AUTO 00000KT 10SM CLR 09/09 A3017 RMK AO2 T00850085
KEZF 200655Z AUTO 00000KT 10SM CLR 09/09 A3017 RMK AO2 T00850085
KEZF 200635Z AUTO 00000KT 10SM CLR 09/09 A3017 RMK AO2 T00860086
KEZF 200615Z AUTO 00000KT 10SM CLR 09/09 A3017 RMK AO2 T00870087
KEZF 200555Z AUTO 00000KT 10SM CLR 09/09 A3017 RMK AO2 T00870087 10138 20086 402420048